createdAt,value
2024-02-26T00:00:04.926Z,76.62
2024-02-26T00:01:03.635Z,76.56
2024-02-26T00:02:03.529Z,76.66
2024-02-26T00:03:03.539Z,76.74
2024-02-26T00:04:03.116Z,76.90
2024-02-26T00:05:04.038Z,77.01
2024-02-26T00:06:03.189Z,77.00
2024-02-26T00:07:04.390Z,76.92
2024-02-26T00:08:06.580Z,76.85
2024-02-26T00:09:03.781Z,76.88
2024-02-26T00:10:03.503Z,76.84
2024-02-26T00:11:03.775Z,76.76
2024-02-26T00:12:03.595Z,76.75
2024-02-26T00:13:03.213Z,76.70
2024-02-26T00:14:02.756Z,76.68
2024-02-26T00:15:04.070Z,76.73
2024-02-26T00:16:03.780Z,76.73
2024-02-26T00:17:04.053Z,76.69
2024-02-26T00:18:04.243Z,76.61
2024-02-26T00:19:04.048Z,76.56
2024-02-26T00:20:03.592Z,76.54
2024-02-26T00:21:03.344Z,76.56
2024-02-26T00:22:03.046Z,76.61
2024-02-26T00:23:03.778Z,76.67
2024-02-26T00:24:03.530Z,76.70
2024-02-26T00:25:03.383Z,76.67
2024-02-26T00:26:02.980Z,76.65
2024-02-26T00:27:03.997Z,76.73
2024-02-26T00:28:03.610Z,76.85
2024-02-26T00:29:03.414Z,76.94
2024-02-26T00:30:03.497Z,77.07
2024-02-26T00:31:03.199Z,77.20
2024-02-26T00:32:02.985Z,77.22
2024-02-26T00:33:04.003Z,77.28
2024-02-26T00:34:04.169Z,77.36
2024-02-26T00:35:03.492Z,77.31
2024-02-26T00:36:03.205Z,77.52
2024-02-26T00:37:02.887Z,77.67
2024-02-26T00:38:03.497Z,77.56
2024-02-26T00:39:03.484Z,77.58
2024-02-26T00:40:03.351Z,77.69
2024-02-26T00:41:03.139Z,77.63
2024-02-26T00:42:03.115Z,77.74
2024-02-26T00:43:03.731Z,77.79
2024-02-26T00:44:03.449Z,77.75
2024-02-26T00:45:03.392Z,77.73
2024-02-26T00:46:03.174Z,77.88
2024-02-26T00:47:03.148Z,77.95
2024-02-26T00:48:03.960Z,78.08
2024-02-26T00:49:04.546Z,78.12
2024-02-26T00:50:03.506Z,78.23
2024-02-26T00:51:03.405Z,78.30
2024-02-26T00:52:02.979Z,78.43
2024-02-26T00:53:03.858Z,78.50
2024-02-26T00:54:04.127Z,78.58
2024-02-26T00:55:03.495Z,78.65
2024-02-26T00:56:03.331Z,78.96
2024-02-26T00:57:03.171Z,78.99
2024-02-26T00:58:02.933Z,79.05
2024-02-26T00:59:03.760Z,79.33
2024-02-26T01:00:04.736Z,79.36
2024-02-26T01:01:03.056Z,79.56
2024-02-26T01:02:04.088Z,79.47
2024-02-26T01:03:03.109Z,79.40
2024-02-26T01:04:03.962Z,79.37
2024-02-26T01:05:03.467Z,79.49
2024-02-26T01:06:03.806Z,79.65
2024-02-26T01:07:03.402Z,79.69
2024-02-26T01:08:04.218Z,79.88
2024-02-26T01:09:03.641Z,79.90
2024-02-26T01:10:03.309Z,80.13
2024-02-26T01:11:03.218Z,80.31
2024-02-26T01:12:03.029Z,80.23
2024-02-26T01:13:03.786Z,80.23
2024-02-26T01:14:03.473Z,80.45
2024-02-26T01:15:03.786Z,80.53
2024-02-26T01:16:02.989Z,80.43
2024-02-26T01:17:03.937Z,80.48
2024-02-26T01:18:04.300Z,80.64
2024-02-26T01:19:04.089Z,80.73
2024-02-26T01:20:03.810Z,80.84
2024-02-26T01:21:03.440Z,81.04
2024-02-26T01:22:03.004Z,81.15
2024-02-26T01:23:03.830Z,81.32
2024-02-26T01:24:03.718Z,81.34
2024-02-26T01:25:03.286Z,81.35
2024-02-26T01:26:03.062Z,81.28
2024-02-26T01:27:02.926Z,81.45
2024-02-26T01:28:03.657Z,81.47
2024-02-26T01:29:03.380Z,81.55
2024-02-26T01:30:03.409Z,81.62
2024-02-26T01:31:03.228Z,81.66
2024-02-26T01:32:04.004Z,81.96
2024-02-26T01:33:03.248Z,82.18
2024-02-26T01:34:04.368Z,82.11
2024-02-26T01:35:03.481Z,82.25
2024-02-26T01:36:03.502Z,82.52
2024-02-26T01:37:03.015Z,82.47
2024-02-26T01:38:03.706Z,82.81
2024-02-26T01:39:03.534Z,82.59
2024-02-26T01:40:03.281Z,82.79
2024-02-26T01:41:02.805Z,83.23
2024-02-26T01:42:03.764Z,83.21
2024-02-26T01:43:03.297Z,83.10
2024-02-26T01:44:03.177Z,83.01
2024-02-26T01:45:03.529Z,82.80
2024-02-26T01:46:03.040Z,82.90
2024-02-26T01:47:03.936Z,83.10
2024-02-26T01:48:04.445Z,83.12
2024-02-26T01:49:04.170Z,83.12
2024-02-26T01:50:03.518Z,83.17
2024-02-26T01:51:03.430Z,83.20
2024-02-26T01:52:03.154Z,82.92
2024-02-26T01:53:02.704Z,82.85
2024-02-26T01:54:03.917Z,82.89
2024-02-26T01:55:03.451Z,82.95
2024-02-26T01:56:03.262Z,83.22
2024-02-26T01:57:03.148Z,83.16
2024-02-26T01:58:02.789Z,83.22
2024-02-26T01:59:03.723Z,83.34
2024-02-26T02:00:04.718Z,83.43
2024-02-26T02:01:03.378Z,83.45
2024-02-26T02:02:03.248Z,83.54
2024-02-26T02:03:02.934Z,83.48
2024-02-26T02:04:04.011Z,83.49
2024-02-26T02:05:03.441Z,83.61
2024-02-26T02:06:03.586Z,83.51
2024-02-26T02:07:03.297Z,83.77
2024-02-26T02:08:03.807Z,83.98
2024-02-26T02:09:03.802Z,83.92
2024-02-26T02:10:03.406Z,83.70
2024-02-26T02:11:03.401Z,83.55
2024-02-26T02:12:03.383Z,83.63
2024-02-26T02:13:02.903Z,83.73
2024-02-26T02:14:03.715Z,83.86
2024-02-26T02:15:04.472Z,84.00
2024-02-26T02:16:03.838Z,83.91
2024-02-26T02:17:03.811Z,84.01
2024-02-26T02:18:04.126Z,83.85
2024-02-26T02:19:03.800Z,83.87
2024-02-26T02:20:03.576Z,83.85
2024-02-26T02:21:03.297Z,83.81
2024-02-26T02:22:02.790Z,84.10
2024-02-26T02:23:03.552Z,84.26
2024-02-26T02:24:03.239Z,84.26
2024-02-26T02:25:03.100Z,84.20
2024-02-26T02:26:03.694Z,84.33
2024-02-26T02:27:03.538Z,84.62
2024-02-26T02:28:03.317Z,84.78
2024-02-26T02:29:02.807Z,84.88
2024-02-26T02:30:04.216Z,84.88
2024-02-26T02:31:03.917Z,84.83
2024-02-26T02:32:03.851Z,84.73
2024-02-26T02:33:04.131Z,84.87
2024-02-26T02:34:03.856Z,85.38
2024-02-26T02:35:03.354Z,85.33
2024-02-26T02:36:03.021Z,85.08
2024-02-26T02:37:03.894Z,85.29
2024-02-26T02:38:03.752Z,85.56
2024-02-26T02:39:03.673Z,85.53
2024-02-26T02:40:03.505Z,85.62
2024-02-26T02:41:03.388Z,85.41
2024-02-26T02:42:03.288Z,85.19
2024-02-26T02:43:03.084Z,85.13
2024-02-26T02:44:03.968Z,85.34
2024-02-26T02:45:04.122Z,85.27
2024-02-26T02:46:03.787Z,85.5
2024-02-26T02:47:03.810Z,85.68
2024-02-26T02:48:04.021Z,85.60
2024-02-26T02:49:03.516Z,85.54
2024-02-26T02:50:03.164Z,85.47
2024-02-26T02:51:02.885Z,85.54
2024-02-26T02:52:03.580Z,85.71
2024-02-26T02:53:03.414Z,85.75
2024-02-26T02:54:03.336Z,85.69
2024-02-26T02:55:02.978Z,85.65
2024-02-26T02:56:03.704Z,85.84
2024-02-26T02:57:03.865Z,85.81
2024-02-26T02:58:03.652Z,85.72
2024-02-26T02:59:03.314Z,85.80
2024-02-26T03:00:04.445Z,85.81
2024-02-26T03:01:04.047Z,85.86
2024-02-26T03:02:03.638Z,85.69
2024-02-26T03:03:03.417Z,85.59
2024-02-26T03:04:03.180Z,85.39
2024-02-26T03:05:03.134Z,85.44
2024-02-26T03:06:03.999Z,85.80
2024-02-26T03:07:03.981Z,85.86
2024-02-26T03:08:03.295Z,85.79
2024-02-26T03:09:03.332Z,85.79
2024-02-26T03:10:03.019Z,85.75
2024-02-26T03:11:04.034Z,85.76
2024-02-26T03:12:03.970Z,85.86
2024-02-26T03:13:03.469Z,85.91
2024-02-26T03:14:03.276Z,85.87
2024-02-26T03:15:03.458Z,85.65
2024-02-26T03:16:03.058Z,85.59
2024-02-26T03:17:03.965Z,85.66
2024-02-26T03:18:04.267Z,85.68
2024-02-26T03:19:04.302Z,85.69
2024-02-26T03:20:03.847Z,85.64
2024-02-26T03:21:03.659Z,85.67
2024-02-26T03:22:03.382Z,85.79
2024-02-26T03:23:03.061Z,85.84
2024-02-26T03:24:03.981Z,85.71
2024-02-26T03:25:03.771Z,85.76
2024-02-26T03:26:03.469Z,85.94
2024-02-26T03:27:03.392Z,85.83
2024-02-26T03:28:03.095Z,85.99
2024-02-26T03:29:02.934Z,85.97
2024-02-26T03:30:04.182Z,85.93
2024-02-26T03:31:03.955Z,86.04
2024-02-26T03:32:04.131Z,86.00
2024-02-26T03:33:04.223Z,86.10
2024-02-26T03:34:03.991Z,86.23
2024-02-26T03:35:03.595Z,86.25
2024-02-26T03:36:03.581Z,86.16
2024-02-26T03:37:02.813Z,86.11
2024-02-26T03:38:03.657Z,85.93
2024-02-26T03:39:03.422Z,86.09
2024-02-26T03:40:03.465Z,86
2024-02-26T03:41:03.365Z,85.87
2024-02-26T03:42:03.123Z,85.94
2024-02-26T03:43:02.876Z,85.89
2024-02-26T03:44:03.671Z,85.88
2024-02-26T03:45:03.796Z,86.09
2024-02-26T03:46:03.572Z,85.98
2024-02-26T03:47:03.439Z,85.88
2024-02-26T03:48:03.672Z,85.88
2024-02-26T03:49:03.416Z,85.90
2024-02-26T03:50:02.892Z,85.92
2024-02-26T03:51:03.797Z,85.74
2024-02-26T03:52:03.327Z,85.89
2024-02-26T03:53:03.091Z,85.95
2024-02-26T03:54:02.915Z,86.01
2024-02-26T03:55:03.843Z,86.04
2024-02-26T03:56:03.555Z,85.88
2024-02-26T03:57:03.512Z,85.79
2024-02-26T03:58:03.142Z,85.85
2024-02-26T03:59:02.873Z,85.91
2024-02-26T04:00:04.985Z,85.94
2024-02-26T04:01:02.986Z,85.90
2024-02-26T04:02:03.713Z,86.04
2024-02-26T04:03:03.446Z,86.09
2024-02-26T04:04:03.262Z,86.17
2024-02-26T04:05:03.279Z,86.21
2024-02-26T04:06:04.105Z,86.11
2024-02-26T04:07:04.158Z,86.03
2024-02-26T04:08:03.138Z,86.04
2024-02-26T04:09:02.961Z,86.19
2024-02-26T04:10:07.617Z,86.32
2024-02-26T04:11:03.835Z,86.22
2024-02-26T04:12:03.415Z,86.27
2024-02-26T04:13:03.069Z,86.28
2024-02-26T04:14:02.837Z,86.40
2024-02-26T04:15:04.072Z,86.48
2024-02-26T04:16:03.762Z,86.49
2024-02-26T04:17:03.710Z,86.52
2024-02-26T04:18:04.066Z,86.54
2024-02-26T04:19:03.526Z,86.56
2024-02-26T04:20:02.967Z,86.56
2024-02-26T04:21:03.809Z,86.57
2024-02-26T04:22:03.695Z,86.56
2024-02-26T04:23:03.340Z,86.49
2024-02-26T04:24:03.473Z,86.26
2024-02-26T04:25:02.991Z,86.14
2024-02-26T04:26:03.803Z,86.02
2024-02-26T04:27:03.721Z,86.20
2024-02-26T04:28:03.318Z,86.32
2024-02-26T04:29:03.061Z,86.34
2024-02-26T04:30:04.517Z,86.40
2024-02-26T04:31:03.139Z,86.36
2024-02-26T04:32:04.102Z,86.15
2024-02-26T04:33:03.234Z,86.16
2024-02-26T04:34:04.368Z,86.01
2024-02-26T04:35:04.131Z,85.98
2024-02-26T04:36:04.180Z,85.91
2024-02-26T04:37:03.779Z,85.98
2024-02-26T04:38:03.368Z,86.13
2024-02-26T04:39:03.302Z,86.11
2024-02-26T04:40:03.229Z,86.08
2024-02-26T04:41:03.058Z,86.04
2024-02-26T04:42:03.849Z,86.00
2024-02-26T04:43:03.320Z,86.09
2024-02-26T04:44:03.275Z,86.31
2024-02-26T04:45:03.565Z,86.30
2024-02-26T04:46:03.133Z,86.28
2024-02-26T04:47:03.253Z,86.40
2024-02-26T04:48:03.402Z,86.36
2024-02-26T04:49:04.330Z,86.33
2024-02-26T04:50:03.530Z,86.30
2024-02-26T04:51:03.262Z,86.34
2024-02-26T04:52:03.045Z,86.27
2024-02-26T04:53:03.787Z,86.42
2024-02-26T04:54:03.596Z,86.51
2024-02-26T04:55:03.251Z,86.50
2024-02-26T04:56:03.118Z,86.59
2024-02-26T04:57:03.115Z,86.74
2024-02-26T04:58:03.966Z,86.76
2024-02-26T04:59:03.798Z,86.71
2024-02-26T05:00:04.705Z,86.75
2024-02-26T05:01:03.180Z,86.85
2024-02-26T05:02:04.009Z,86.92
2024-02-26T05:03:04.202Z,87.09
2024-02-26T05:04:04.074Z,87.37
2024-02-26T05:05:03.805Z,87.35
2024-02-26T05:06:03.639Z,87.35
2024-02-26T05:07:03.658Z,87.23
2024-02-26T05:08:02.932Z,87.49
2024-02-26T05:09:03.955Z,87.52
2024-02-26T05:10:03.653Z,87.64
2024-02-26T05:11:03.628Z,87.66
2024-02-26T05:12:03.332Z,87.60
2024-02-26T05:13:03.026Z,87.67
2024-02-26T05:14:02.786Z,87.69
2024-02-26T05:15:04.098Z,87.65
2024-02-26T05:16:03.965Z,87.56
2024-02-26T05:17:04.023Z,87.65
2024-02-26T05:18:04.825Z,87.62
2024-02-26T05:19:04.032Z,87.70
2024-02-26T05:20:03.787Z,87.69
2024-02-26T05:21:03.493Z,87.63
2024-02-26T05:22:03.167Z,87.71
2024-02-26T05:23:02.870Z,87.73
2024-02-26T05:24:03.860Z,87.73
2024-02-26T05:25:03.422Z,87.61
2024-02-26T05:26:03.424Z,87.66
2024-02-26T05:27:03.488Z,87.62
2024-02-26T05:28:03.245Z,87.69
2024-02-26T05:29:03.822Z,87.73
2024-02-26T05:30:03.985Z,87.79
2024-02-26T05:31:03.528Z,87.70
2024-02-26T05:32:03.437Z,87.66
2024-02-26T05:33:03.493Z,87.77
2024-02-26T05:34:03.532Z,87.87
2024-02-26T05:35:04.087Z,87.84
2024-02-26T05:36:03.705Z,87.87
2024-02-26T05:37:03.372Z,87.91
2024-02-26T05:38:03.093Z,87.97
2024-02-26T05:39:03.022Z,88.07
2024-02-26T05:40:03.688Z,88.13
2024-02-26T05:41:03.495Z,88.23
2024-02-26T05:42:03.295Z,88.32
2024-02-26T05:43:03.776Z,88.29
2024-02-26T05:44:03.384Z,88.36
2024-02-26T05:45:03.533Z,88.42
2024-02-26T05:46:03.270Z,88.42
2024-02-26T05:47:07.620Z,88.38
2024-02-26T05:48:04.074Z,88.37
2024-02-26T05:49:03.704Z,88.52
2024-02-26T05:50:03.304Z,88.49
2024-02-26T05:51:03.187Z,88.51
2024-02-26T05:52:02.802Z,88.58
2024-02-26T05:53:03.643Z,88.57
2024-02-26T05:54:03.475Z,88.72
2024-02-26T05:55:02.959Z,88.68
2024-02-26T05:56:03.770Z,88.61
2024-02-26T05:57:03.791Z,88.54
2024-02-26T05:58:03.315Z,88.62
2024-02-26T05:59:03.093Z,88.66
2024-02-26T06:00:05.381Z,88.66
2024-02-26T06:01:03.880Z,88.53
2024-02-26T06:02:03.527Z,88.48
2024-02-26T06:03:03.127Z,88.55
2024-02-26T06:04:03.968Z,88.63
2024-02-26T06:05:03.631Z,88.72
2024-02-26T06:06:03.634Z,88.71
2024-02-26T06:07:03.197Z,88.71
2024-02-26T06:08:02.844Z,88.79
2024-02-26T06:09:03.711Z,88.78
2024-02-26T06:10:03.457Z,88.81
2024-02-26T06:11:03.488Z,88.79
2024-02-26T06:12:03.300Z,88.81
2024-02-26T06:13:02.883Z,88.86
2024-02-26T06:14:05.298Z,89.03
2024-02-26T06:15:04.093Z,89.07
2024-02-26T06:16:03.512Z,89.06
2024-02-26T06:17:03.528Z,89.09
2024-02-26T06:18:03.529Z,89.06
2024-02-26T06:19:03.592Z,89.06
2024-02-26T06:20:03.404Z,89.18
2024-02-26T06:21:04.085Z,89.29
2024-02-26T06:22:03.811Z,89.38
2024-02-26T06:23:03.566Z,89.22
2024-02-26T06:24:03.270Z,89.18
2024-02-26T06:25:03.192Z,89.30
2024-02-26T06:26:02.787Z,89.40
2024-02-26T06:27:03.989Z,89.45
2024-02-26T06:28:03.557Z,89.49
2024-02-26T06:29:03.396Z,89.50
2024-02-26T06:30:03.400Z,89.55
2024-02-26T06:31:03.209Z,89.57
2024-02-26T06:32:03.112Z,89.61
2024-02-26T06:33:04.181Z,89.67
2024-02-26T06:34:04.057Z,89.68
2024-02-26T06:35:08.517Z,89.71
2024-02-26T06:36:03.829Z,89.70
2024-02-26T06:37:03.583Z,89.69
2024-02-26T06:38:03.272Z,89.73
2024-02-26T06:39:03.290Z,89.67
2024-02-26T06:40:02.998Z,89.69
2024-02-26T06:41:03.137Z,89.79
2024-02-26T06:42:04.129Z,89.78
2024-02-26T06:43:03.619Z,89.79
2024-02-26T06:44:03.408Z,89.81
2024-02-26T06:45:03.444Z,89.78
2024-02-26T06:46:03.377Z,89.86
2024-02-26T06:47:03.870Z,89.83
2024-02-26T06:48:04.287Z,89.73
2024-02-26T06:49:04.053Z,89.55
2024-02-26T06:50:03.720Z,89.66
2024-02-26T06:51:03.202Z,89.77
2024-02-26T06:52:02.822Z,89.85
2024-02-26T06:53:03.560Z,89.84
2024-02-26T06:54:03.418Z,89.88
2024-02-26T06:55:03.239Z,89.92
2024-02-26T06:56:02.936Z,90.05
2024-02-26T06:57:03.998Z,89.94
2024-02-26T06:58:03.616Z,89.93
2024-02-26T06:59:03.560Z,89.83
2024-02-26T07:00:04.741Z,89.83
2024-02-26T07:01:03.742Z,89.82
2024-02-26T07:02:03.485Z,89.66
2024-02-26T07:03:03.466Z,89.5
2024-02-26T07:04:03.369Z,89.46
2024-02-26T07:05:02.967Z,89.47
2024-02-26T07:06:03.272Z,89.52
2024-02-26T07:07:04.084Z,89.48
2024-02-26T07:08:03.266Z,89.44
2024-02-26T07:09:03.275Z,89.46
2024-02-26T07:10:02.929Z,89.45
2024-02-26T07:11:03.213Z,89.52
2024-02-26T07:12:03.039Z,89.59
2024-02-26T07:13:03.671Z,89.70
2024-02-26T07:14:03.484Z,89.65
2024-02-26T07:15:03.595Z,89.65
2024-02-26T07:16:03.384Z,89.59
2024-02-26T07:17:03.532Z,89.56
2024-02-26T07:18:03.726Z,89.44
2024-02-26T07:19:03.369Z,89.49
2024-02-26T07:20:07.806Z,89.58
2024-02-26T07:21:03.789Z,89.58
2024-02-26T07:22:03.307Z,89.56
2024-02-26T07:23:03.256Z,89.60
2024-02-26T07:24:03.999Z,89.57
2024-02-26T07:25:03.677Z,89.59
2024-02-26T07:26:03.602Z,89.66
2024-02-26T07:27:03.376Z,89.69
2024-02-26T07:28:02.898Z,89.71
2024-02-26T07:29:03.847Z,89.70
2024-02-26T07:30:04.129Z,89.67
2024-02-26T07:31:03.908Z,89.68
2024-02-26T07:32:03.895Z,89.73
2024-02-26T07:33:03.658Z,89.81
2024-02-26T07:34:04.007Z,89.84
2024-02-26T07:35:03.516Z,89.83
2024-02-26T07:36:03.005Z,89.82
2024-02-26T07:37:03.821Z,89.90
2024-02-26T07:38:03.708Z,89.86
2024-02-26T07:39:03.598Z,89.84
2024-02-26T07:40:03.333Z,89.81
2024-02-26T07:41:04.772Z,89.89
2024-02-26T07:42:03.187Z,90
2024-02-26T07:43:03.837Z,90.01
2024-02-26T07:44:03.698Z,89.95
2024-02-26T07:45:03.967Z,89.93
2024-02-26T07:46:03.636Z,89.83
2024-02-26T07:47:03.349Z,89.73
2024-02-26T07:48:03.424Z,89.83
2024-02-26T07:49:03.283Z,89.92
2024-02-26T07:50:04.196Z,89.96
2024-02-26T07:51:03.750Z,89.93
2024-02-26T07:52:03.469Z,89.91
2024-02-26T07:53:03.406Z,90.01
2024-02-26T07:54:03.167Z,90.00
2024-02-26T07:55:07.991Z,90.07
2024-02-26T07:56:03.121Z,90.06
2024-02-26T07:57:03.063Z,90.04
2024-02-26T07:58:04.243Z,90.10
2024-02-26T07:59:03.572Z,90.15
2024-02-26T08:00:04.804Z,90.15
2024-02-26T08:01:03.413Z,90.12
2024-02-26T08:02:03.060Z,90.02
2024-02-26T08:03:03.828Z,90.03
2024-02-26T08:04:04.735Z,90.05
2024-02-26T08:05:03.843Z,90.11
2024-02-26T08:06:03.853Z,90.01
2024-02-26T08:07:03.615Z,89.93
2024-02-26T08:08:03.137Z,89.97
2024-02-26T08:09:04.005Z,89.99
2024-02-26T08:10:03.781Z,90.08
2024-02-26T08:11:03.666Z,90.04
2024-02-26T08:12:03.408Z,90.02
2024-02-26T08:13:03.192Z,90.03
2024-02-26T08:14:03.648Z,90.06
2024-02-26T08:15:04.149Z,90.09
2024-02-26T08:16:03.868Z,89.94
2024-02-26T08:17:03.678Z,90.00
2024-02-26T08:18:03.952Z,90.06
2024-02-26T08:19:03.694Z,90.14
2024-02-26T08:20:03.456Z,90.15
2024-02-26T08:21:03.437Z,90.12
2024-02-26T08:22:05.919Z,89.96
2024-02-26T08:23:03.938Z,89.87
2024-02-26T08:24:03.877Z,89.95
2024-02-26T08:25:03.552Z,90.05
2024-02-26T08:26:03.264Z,90.05
2024-02-26T08:27:03.180Z,89.98
2024-02-26T08:28:03.833Z,90.01
2024-02-26T08:29:03.707Z,90.08
2024-02-26T08:30:04.206Z,90.09
2024-02-26T08:31:03.607Z,90.13
2024-02-26T08:32:03.596Z,90.16
2024-02-26T08:33:03.662Z,90.20
2024-02-26T08:34:03.753Z,90.23
2024-02-26T08:35:03.588Z,90.29
2024-02-26T08:36:03.175Z,90.40
2024-02-26T08:37:03.904Z,90.38
2024-02-26T08:38:03.609Z,90.40
2024-02-26T08:39:03.648Z,90.36
2024-02-26T08:40:10.780Z,90.29
2024-02-26T08:41:03.949Z,90.21
2024-02-26T08:42:04.135Z,90.24
2024-02-26T08:43:03.658Z,90.24
2024-02-26T08:44:03.465Z,90.26
2024-02-26T08:45:03.637Z,90.26
2024-02-26T08:46:03.633Z,90.26
2024-02-26T08:47:03.462Z,90.30
2024-02-26T08:48:03.635Z,90.24
2024-02-26T08:49:03.672Z,90.21
2024-02-26T08:50:04.086Z,90.19
2024-02-26T08:51:03.956Z,90.31
2024-02-26T08:52:03.582Z,90.37
2024-02-26T08:53:08.111Z,90.42
2024-02-26T08:54:03.208Z,90.50
2024-02-26T08:55:04.029Z,90.52
2024-02-26T08:56:03.016Z,90.52
2024-02-26T08:57:04.157Z,90.49
2024-02-26T08:58:03.477Z,90.55
2024-02-26T08:59:03.451Z,90.66
2024-02-26T09:00:04.713Z,90.60
2024-02-26T09:01:03.528Z,90.64
2024-02-26T09:02:03.411Z,90.77
2024-02-26T09:03:06.594Z,90.87
2024-02-26T09:04:03.719Z,90.85
2024-02-26T09:05:03.581Z,90.74
2024-02-26T09:06:03.580Z,90.77
2024-02-26T09:07:03.330Z,90.87
2024-02-26T09:08:03.162Z,90.91
2024-02-26T09:09:03.355Z,90.94
2024-02-26T09:10:03.177Z,90.91
2024-02-26T09:11:03.028Z,90.82
2024-02-26T09:12:04.274Z,90.86
2024-02-26T09:13:03.563Z,90.88
2024-02-26T09:14:03.685Z,90.88
2024-02-26T09:15:03.801Z,90.97
2024-02-26T09:16:03.560Z,91.00
2024-02-26T09:17:03.526Z,90.89
2024-02-26T09:18:03.991Z,90.88
2024-02-26T09:19:03.843Z,90.89
2024-02-26T09:20:03.434Z,90.98
2024-02-26T09:21:03.303Z,91.04
2024-02-26T09:22:03.464Z,91.02
2024-02-26T09:23:03.351Z,90.96
2024-02-26T09:24:03.624Z,90.89
2024-02-26T09:25:03.378Z,90.87
2024-02-26T09:26:03.306Z,90.86
2024-02-26T09:27:03.152Z,90.96
2024-02-26T09:28:03.027Z,91.06
2024-02-26T09:29:03.091Z,91.10
2024-02-26T09:30:04.579Z,91.14
2024-02-26T09:31:04.072Z,91.13
2024-02-26T09:32:03.982Z,91.07
2024-02-26T09:33:04.019Z,91.09
2024-02-26T09:34:04.503Z,91.02
2024-02-26T09:35:03.436Z,91.04
2024-02-26T09:36:03.275Z,91.02
2024-02-26T09:37:21.614Z,91.08
2024-02-26T09:38:04.044Z,91.11
2024-02-26T09:39:03.487Z,91.10
2024-02-26T09:40:03.247Z,91.09
2024-02-26T09:41:03.140Z,91.09
2024-02-26T09:42:03.143Z,91.11
2024-02-26T09:43:03.470Z,91.16
2024-02-26T09:44:03.147Z,91.29
2024-02-26T09:45:03.931Z,91.37
2024-02-26T09:46:06.350Z,91.38
2024-02-26T09:47:03.712Z,91.34
2024-02-26T09:48:04.365Z,91.40
2024-02-26T09:49:04.104Z,91.48
2024-02-26T09:50:04.063Z,91.51
2024-02-26T09:51:03.749Z,91.52
2024-02-26T09:52:03.605Z,91.48
2024-02-26T09:53:03.630Z,91.47
2024-02-26T09:54:09.209Z,91.41
2024-02-26T09:55:03.558Z,91.43
2024-02-26T09:56:03.580Z,91.49
2024-02-26T09:57:05.789Z,91.54
2024-02-26T09:58:04.063Z,91.60
2024-02-26T09:59:03.940Z,91.55
2024-02-26T10:00:05.255Z,91.39
2024-02-26T10:01:04.132Z,91.35
2024-02-26T10:02:04.257Z,91.37
2024-02-26T10:03:03.288Z,91.38
2024-02-26T10:04:03.091Z,91.41
2024-02-26T10:05:03.504Z,91.38
2024-02-26T10:06:03.417Z,91.39
2024-02-26T10:07:03.404Z,91.40
2024-02-26T10:08:03.272Z,91.52
2024-02-26T10:09:03.432Z,91.56
2024-02-26T10:10:03.278Z,91.62
2024-02-26T10:11:03.194Z,91.59
2024-02-26T10:12:03.274Z,91.54
2024-02-26T10:13:03.248Z,91.58
2024-02-26T10:14:03.931Z,91.59
2024-02-26T10:15:04.194Z,91.58
2024-02-26T10:16:03.919Z,91.51
2024-02-26T10:17:03.931Z,91.47
2024-02-26T10:18:04.310Z,91.54
2024-02-26T10:19:04.095Z,91.58
2024-02-26T10:20:04.409Z,91.65
2024-02-26T10:21:03.597Z,91.69
2024-02-26T10:22:03.333Z,91.56
2024-02-26T10:23:03.218Z,91.53
2024-02-26T10:24:03.073Z,91.60
2024-02-26T10:25:03.382Z,91.64
2024-02-26T10:26:03.195Z,91.72
2024-02-26T10:27:03.458Z,91.72
2024-02-26T10:28:03.257Z,91.48
2024-02-26T10:29:03.128Z,91.46
2024-02-26T10:30:03.890Z,91.36
2024-02-26T10:31:03.758Z,91.34
2024-02-26T10:32:03.746Z,91.50
2024-02-26T10:33:03.772Z,91.58
2024-02-26T10:34:06.526Z,91.61
2024-02-26T10:35:03.884Z,91.60
2024-02-26T10:36:03.754Z,91.67
2024-02-26T10:37:03.848Z,91.63
2024-02-26T10:38:03.408Z,91.61
2024-02-26T10:39:03.397Z,91.65
2024-02-26T10:40:03.424Z,91.66
2024-02-26T10:41:03.251Z,91.66
2024-02-26T10:42:03.133Z,91.64
2024-02-26T10:43:03.941Z,91.58
2024-02-26T10:44:03.783Z,91.61
2024-02-26T10:45:03.990Z,91.67
2024-02-26T10:46:03.551Z,91.68
2024-02-26T10:47:03.711Z,91.66
2024-02-26T10:48:03.811Z,91.70
2024-02-26T10:49:03.652Z,91.75
2024-02-26T10:50:03.837Z,91.80
2024-02-26T10:51:03.415Z,91.77
2024-02-26T10:52:03.252Z,91.73
2024-02-26T10:53:03.197Z,91.64
2024-02-26T10:54:03.512Z,91.65
2024-02-26T10:55:03.545Z,91.64
2024-02-26T10:56:03.293Z,91.69
2024-02-26T10:57:03.670Z,91.67
2024-02-26T10:58:03.355Z,91.62
2024-02-26T10:59:03.207Z,91.65
2024-02-26T11:00:05.098Z,91.68
2024-02-26T11:01:04.062Z,91.66
2024-02-26T11:02:03.823Z,91.69
2024-02-26T11:03:03.633Z,91.68
2024-02-26T11:04:03.972Z,91.68
2024-02-26T11:05:03.652Z,91.74
2024-02-26T11:06:03.772Z,91.80
2024-02-26T11:07:03.890Z,91.77
2024-02-26T11:08:03.602Z,91.77
2024-02-26T11:09:03.510Z,91.75
2024-02-26T11:10:03.640Z,91.67
2024-02-26T11:11:03.642Z,91.63
2024-02-26T11:12:03.500Z,91.67
2024-02-26T11:13:03.353Z,91.59
2024-02-26T11:14:03.595Z,91.47
2024-02-26T11:15:04.047Z,91.49
2024-02-26T11:16:03.563Z,91.49
2024-02-26T11:17:03.650Z,91.57
2024-02-26T11:18:03.659Z,91.56
2024-02-26T11:19:03.726Z,91.62
2024-02-26T11:20:03.460Z,91.71
2024-02-26T11:21:03.619Z,91.75
2024-02-26T11:23:03.493Z,91.75
2024-02-26T11:24:03.607Z,91.60
2024-02-26T11:25:03.663Z,91.55
2024-02-26T11:26:03.483Z,91.59
2024-02-26T11:27:03.558Z,91.49
2024-02-26T11:28:03.290Z,91.25
2024-02-26T11:29:03.202Z,91.09
2024-02-26T11:30:04.044Z,90.94
2024-02-26T11:31:03.916Z,90.85
2024-02-26T11:32:03.994Z,90.72
2024-02-26T11:33:03.883Z,90.63
2024-02-26T11:34:04.040Z,90.52
2024-02-26T11:35:04.069Z,90.50
2024-02-26T11:36:03.595Z,90.70
2024-02-26T11:37:03.420Z,90.83
2024-02-26T11:38:03.480Z,90.94
2024-02-26T11:39:03.761Z,91.01
2024-02-26T11:40:03.641Z,91.08
2024-02-26T11:41:03.503Z,91.11
2024-02-26T11:42:03.456Z,91.12
2024-02-26T11:43:03.689Z,91.26
2024-02-26T11:44:03.666Z,91.27
2024-02-26T11:45:03.979Z,91.30
2024-02-26T11:46:03.641Z,91.38
2024-02-26T11:47:03.639Z,91.35
2024-02-26T11:48:03.957Z,91.35
2024-02-26T11:49:03.956Z,91.37
2024-02-26T11:50:03.676Z,91.38
2024-02-26T11:51:03.661Z,91.31
2024-02-26T11:52:03.645Z,91.23
2024-02-26T11:53:03.673Z,91.29
2024-02-26T11:54:03.604Z,91.23
2024-02-26T11:55:03.899Z,91.24
2024-02-26T11:56:03.607Z,91.16
2024-02-26T11:57:03.621Z,91.14
2024-02-26T11:58:03.330Z,91.08
2024-02-26T11:59:03.937Z,91.14
2024-02-26T12:00:04.671Z,91.19
2024-02-26T12:01:03.962Z,91.17
2024-02-26T12:02:04.327Z,91.12
2024-02-26T12:03:03.835Z,91.09
2024-02-26T12:04:03.525Z,91.10
2024-02-26T12:05:03.976Z,91.20
2024-02-26T12:06:03.743Z,91.26
2024-02-26T12:07:03.885Z,91.27
2024-02-26T12:08:08.523Z,91.26
2024-02-26T12:09:03.463Z,91.26
2024-02-26T12:10:03.699Z,91.20
2024-02-26T12:11:03.824Z,91.15
2024-02-26T12:12:03.924Z,91.14
2024-02-26T12:13:03.815Z,91.23
2024-02-26T12:14:03.563Z,91.31
2024-02-26T12:15:04.278Z,91.31
2024-02-26T12:16:03.832Z,91.33
2024-02-26T12:17:03.777Z,91.35
2024-02-26T12:18:04.132Z,91.37
2024-02-26T12:19:03.884Z,91.31
2024-02-26T12:20:04.185Z,91.30
2024-02-26T12:21:04.299Z,91.19
2024-02-26T12:22:03.594Z,91.22
2024-02-26T12:23:03.685Z,91.15
2024-02-26T12:24:03.616Z,91.06
2024-02-26T12:25:03.665Z,91.03
2024-02-26T12:26:10.711Z,90.97
2024-02-26T12:27:04.070Z,91.00
2024-02-26T12:28:03.422Z,90.96
2024-02-26T12:29:03.430Z,91.01
2024-02-26T12:30:03.987Z,91.00
2024-02-26T12:31:03.790Z,91.06
2024-02-26T12:32:08.337Z,90.98
2024-02-26T12:33:04.092Z,90.97
2024-02-26T12:34:04.109Z,91
2024-02-26T12:35:04.248Z,91.03
2024-02-26T12:36:03.304Z,91.05
2024-02-26T12:37:03.729Z,90.92
2024-02-26T12:38:03.591Z,90.86
2024-02-26T12:39:03.686Z,90.83
2024-02-26T12:40:03.781Z,90.85
2024-02-26T12:41:03.794Z,90.84
2024-02-26T12:42:04.363Z,90.94
2024-02-26T12:43:03.436Z,90.99
2024-02-26T12:44:03.468Z,90.98
2024-02-26T12:45:04.015Z,90.97
2024-02-26T12:46:03.766Z,91.00
2024-02-26T12:47:03.912Z,91.04
2024-02-26T12:48:04.025Z,91.06
2024-02-26T12:49:03.914Z,91.02
2024-02-26T12:50:09.392Z,90.97
2024-02-26T12:51:03.183Z,91.02
2024-02-26T12:52:03.492Z,91.00
2024-02-26T12:53:03.260Z,90.98
2024-02-26T12:54:03.308Z,90.94